sensor_id;sensor_type;location;lat;lon;timestamp;pressure;altitude;pressure_sealevel;temperature;humidity
47536;BME280;33278;50.826;9.030;2022-09-09T00:04:34;98063.56;;;20.87;53.56
47536;BME280;33278;50.826;9.030;2022-09-09T00:10:04;98069.78;;;20.87;53.69
47536;BME280;33278;50.826;9.030;2022-09-09T00:15:39;98056.25;;;20.87;53.50
47536;BME280;33278;50.826;9.030;2022-09-09T00:18:47;98057.38;;;20.86;53.46
47536;BME280;33278;50.826;9.030;2022-09-09T00:21:25;98056.56;;;20.86;53.78
47536;BME280;33278;50.826;9.030;2022-09-09T00:23:58;98056.25;;;20.87;53.78
47536;BME280;33278;50.826;9.030;2022-09-09T00:26:42;98062.78;;;20.86;53.47
47536;BME280;33278;50.826;9.030;2022-09-09T00:29:31;98062.78;;;20.86;53.83
47536;BME280;33278;50.826;9.030;2022-09-09T00:32:16;98061.19;;;20.85;53.63
47536;BME280;33278;50.826;9.030;2022-09-09T00:34:51;98068.97;;;20.87;53.76
47536;BME280;33278;50.826;9.030;2022-09-09T00:37:24;98062.78;;;20.86;53.84
47536;BME280;33278;50.826;9.030;2022-09-09T00:39:59;98060.38;;;20.85;53.76
47536;BME280;33278;50.826;9.030;2022-09-09T00:43:17;98055.78;;;20.85;53.44
47536;BME280;33278;50.826;9.030;2022-09-09T00:51:27;98062.31;;;20.84;53.62
47536;BME280;33278;50.826;9.030;2022-09-09T00:59:48;98063.44;;;20.83;53.78
47536;BME280;33278;50.826;9.030;2022-09-09T01:02:29;98056.44;;;20.82;53.64
47536;BME280;33278;50.826;9.030;2022-09-09T01:05:09;98053.72;;;20.82;53.55
47536;BME280;33278;50.826;9.030;2022-09-09T01:07:44;98051.00;;;20.82;53.69
47536;BME280;33278;50.826;9.030;2022-09-09T01:11:14;98054.84;;;20.81;53.66
47536;BME280;33278;50.826;9.030;2022-09-09T01:13:25;98061.06;;;20.82;53.75
47536;BME280;33278;50.826;9.030;2022-09-09T01:16:01;98055.66;;;20.82;53.61
47536;BME280;33278;50.826;9.030;2022-09-09T01:18:35;98064.13;;;20.80;53.43
47536;BME280;33278;50.826;9.030;2022-09-09T01:21:19;98066.81;;;20.80;53.49
47536;BME280;33278;50.826;9.030;2022-09-09T01:24:15;98060.25;;;20.81;53.81
47536;BME280;33278;50.826;9.030;2022-09-09T01:26:58;98055.19;;;20.80;53.62
47536;BME280;33278;50.826;9.030;2022-09-09T01:29:29;98063.31;;;20.80;53.36
47536;BME280;33278;50.826;9.030;2022-09-09T01:34:51;98059.00;;;20.79;53.70
47536;BME280;33278;50.826;9.030;2022-09-09T01:37:21;98055.53;;;20.78;53.84
47536;BME280;33278;50.826;9.030;2022-09-09T01:39:51;98050.75;;;20.75;53.53
47536;BME280;33278;50.826;9.030;2022-09-09T01:42:22;98047.28;;;20.75;53.55
47536;BME280;33278;50.826;9.030;2022-09-09T01:44:52;98057.44;;;20.78;53.55
47536;BME280;33278;50.826;9.030;2022-09-09T01:47:24;98063.66;;;20.78;53.56
47536;BME280;33278;50.826;9.030;2022-09-09T01:49:55;98058.22;;;20.78;53.76
47536;BME280;33278;50.826;9.030;2022-09-09T01:52:25;98060.94;;;20.78;53.39
47536;BME280;33278;50.826;9.030;2022-09-09T01:54:56;98054.72;;;20.78;53.71
47536;BME280;33278;50.826;9.030;2022-09-09T01:57:31;98060.13;;;20.78;53.54
47536;BME280;33278;50.826;9.030;2022-09-09T02:02:48;98060.94;;;20.78;53.41
47536;BME280;33278;50.826;9.030;2022-09-09T02:05:36;98057.44;;;20.78;53.35
47536;BME280;33278;50.826;9.030;2022-09-09T02:08:09;98059.34;;;20.77;53.55
47536;BME280;33278;50.826;9.030;2022-09-09T02:10:46;98055.53;;;20.78;53.38
47536;BME280;33278;50.826;9.030;2022-09-09T02:13:21;98064.44;;;20.79;53.37
47536;BME280;33278;50.826;9.030;2022-09-09T02:15:58;98070.97;;;20.78;53.38
47536;BME280;33278;50.826;9.030;2022-09-09T02:18:35;98067.47;;;20.77;53.44
47536;BME280;33278;50.826;9.030;2022-09-09T02:21:07;98073.34;;;20.79;53.91
47536;BME280;33278;50.826;9.030;2022-09-09T02:23:42;98075.84;;;20.84;54.60
47536;BME280;33278;50.826;9.030;2022-09-09T02:26:14;98066.56;;;21.07;54.09
47536;BME280;33278;50.826;9.030;2022-09-09T02:28:51;98065.34;;;21.16;54.05
47536;BME280;33278;50.826;9.030;2022-09-09T02:31:23;98065.41;;;21.08;54.71
47536;BME280;33278;50.826;9.030;2022-09-09T02:33:57;98063.94;;;20.98;54.74
47536;BME280;33278;50.826;9.030;2022-09-09T02:36:31;98067.44;;;20.98;54.82
47536;BME280;33278;50.826;9.030;2022-09-09T02:39:05;98076.81;;;21.01;55.23
47536;BME280;33278;50.826;9.030;2022-09-09T02:41:40;98064.16;;;21.05;55.60
47536;BME280;33278;50.826;9.030;2022-09-09T02:44:14;98064.84;;;21.02;55.77
47536;BME280;33278;50.826;9.030;2022-09-09T02:49:57;98067.63;;;20.93;55.84
47536;BME280;33278;50.826;9.030;2022-09-09T02:52:52;98065.28;;;20.92;55.57
47536;BME280;33278;50.826;9.030;2022-09-09T02:55:38;98061.78;;;20.91;55.68
47536;BME280;33278;50.826;9.030;2022-09-09T02:58:11;98072.16;;;20.89;55.77
47536;BME280;33278;50.826;9.030;2022-09-09T03:00:46;98069.78;;;20.87;55.68
47536;BME280;33278;50.826;9.030;2022-09-09T03:03:17;98071.69;;;20.87;55.52
47536;BME280;33278;50.826;9.030;2022-09-09T03:05:48;98071.69;;;20.87;55.56
47536;BME280;33278;50.826;9.030;2022-09-09T03:08:19;98079.69;;;20.83;55.75
47536;BME280;33278;50.826;9.030;2022-09-09T03:10:49;98086.34;;;20.86;55.55
47536;BME280;33278;50.826;9.030;2022-09-09T03:13:19;98082.84;;;20.85;55.78
47536;BME280;33278;50.826;9.030;2022-09-09T03:15:50;98080.47;;;20.84;55.47
47536;BME280;33278;50.826;9.030;2022-09-09T03:18:21;98078.56;;;20.84;55.35
47536;BME280;33278;50.826;9.030;2022-09-09T03:20:52;98082.72;;;20.82;55.75
47536;BME280;33278;50.826;9.030;2022-09-09T03:23:24;98069.97;;;20.82;55.34
47536;BME280;33278;50.826;9.030;2022-09-09T03:25:54;98069.19;;;20.82;55.55
47536;BME280;33278;50.826;9.030;2022-09-09T03:28:27;98062.97;;;20.81;55.66
47536;BME280;33278;50.826;9.030;2022-09-09T03:31:02;98063.31;;;20.80;55.47
47536;BME280;33278;50.826;9.030;2022-09-09T03:33:33;98060.59;;;20.80;55.32
47536;BME280;33278;50.826;9.030;2022-09-09T03:36:04;98065.22;;;20.79;55.73
47536;BME280;33278;50.826;9.030;2022-09-09T03:38:35;98072.25;;;20.80;55.54
47536;BME280;33278;50.826;9.030;2022-09-09T03:41:05;98068.72;;;20.80;55.52
47536;BME280;33278;50.826;9.030;2022-09-09T03:43:36;98057.13;;;20.79;55.33
47536;BME280;33278;50.826;9.030;2022-09-09T03:46:06;98059.34;;;20.77;55.44
47536;BME280;33278;50.826;9.030;2022-09-09T03:48:36;98051.22;;;20.77;55.59
47536;BME280;33278;50.826;9.030;2022-09-09T03:51:07;98052.00;;;20.78;55.51
47536;BME280;33278;50.826;9.030;2022-09-09T03:53:37;98043.09;;;20.77;55.26
47536;BME280;33278;50.826;9.030;2022-09-09T03:56:08;98037.69;;;20.77;55.46
47536;BME280;33278;50.826;9.030;2022-09-09T03:58:39;98045.00;;;20.77;55.63
47536;BME280;33278;50.826;9.030;2022-09-09T04:01:11;98041.53;;;20.76;55.51
47536;BME280;33278;50.826;9.030;2022-09-09T04:03:44;98040.75;;;20.76;55.22
47536;BME280;33278;50.826;9.030;2022-09-09T04:06:15;98051.56;;;20.76;55.38
47536;BME280;33278;50.826;9.030;2022-09-09T04:08:47;98048.06;;;20.75;55.65
47536;BME280;33278;50.826;9.030;2022-09-09T04:11:22;98051.56;;;20.76;55.50
47536;BME280;33278;50.826;9.030;2022-09-09T04:13:52;98058.09;;;20.75;55.25
47536;BME280;33278;50.826;9.030;2022-09-09T04:16:22;98053.47;;;20.75;55.52
47536;BME280;33278;50.826;9.030;2022-09-09T04:18:53;98051.88;;;20.74;55.50
47536;BME280;33278;50.826;9.030;2022-09-09T04:21:23;98055.72;;;20.73;55.24
47536;BME280;33278;50.826;9.030;2022-09-09T04:23:53;98060.34;;;20.73;55.43
47536;BME280;33278;50.826;9.030;2022-09-09T04:26:24;98055.72;;;20.73;55.31
47536;BME280;33278;50.826;9.030;2022-09-09T04:28:54;98053.31;;;20.71;55.42
47536;BME280;33278;50.826;9.030;2022-09-09T04:31:25;98062.25;;;20.72;55.60
47536;BME280;33278;50.826;9.030;2022-09-09T04:33:56;98056.03;;;20.71;55.58
47536;BME280;33278;50.826;9.030;2022-09-09T04:36:26;98047.13;;;20.71;55.56
47536;BME280;33278;50.826;9.030;2022-09-09T04:38:56;98050.94;;;20.70;55.49
47536;BME280;33278;50.826;9.030;2022-09-09T04:41:27;98052.53;;;20.71;55.60
47536;BME280;33278;50.826;9.030;2022-09-09T04:43:58;98055.56;;;20.69;55.19
47536;BME280;33278;50.826;9.030;2022-09-09T04:46:28;98053.66;;;20.70;55.07
47536;BME280;33278;50.826;9.030;2022-09-09T04:48:59;98059.06;;;20.70;55.38
47536;BME280;33278;50.826;9.030;2022-09-09T04:51:29;98052.06;;;20.69;55.53
47536;BME280;33278;50.826;9.030;2022-09-09T04:54:01;98057.47;;;20.69;55.30
47536;BME280;33278;50.826;9.030;2022-09-09T04:56:31;98052.06;;;20.69;55.27
47536;BME280;33278;50.826;9.030;2022-09-09T04:59:01;98062.13;;;20.68;55.58
47536;BME280;33278;50.826;9.030;2022-09-09T05:01:33;98061.31;;;20.68;55.30
47536;BME280;33278;50.826;9.030;2022-09-09T05:04:03;98057.81;;;20.67;55.58
47536;BME280;33278;50.826;9.030;2022-09-09T05:06:34;98058.94;;;20.66;55.51
47536;BME280;33278;50.826;9.030;2022-09-09T05:09:06;98062.44;;;20.67;55.47
47536;BME280;33278;50.826;9.030;2022-09-09T05:11:36;98068.66;;;20.67;55.22
47536;BME280;33278;50.826;9.030;2022-09-09T05:14:08;98070.53;;;20.67;55.12
47536;BME280;33278;50.826;9.030;2022-09-09T05:16:38;98063.53;;;20.66;55.13
47536;BME280;33278;50.826;9.030;2022-09-09T05:19:09;98074.38;;;20.66;55.29
47536;BME280;33278;50.826;9.030;2022-09-09T05:21:39;98074.38;;;20.66;55.11
47536;BME280;33278;50.826;9.030;2022-09-09T05:26:41;98080.94;;;20.65;55.21
47536;BME280;33278;50.826;9.030;2022-09-09T05:29:12;98085.19;;;20.66;55.40
47536;BME280;33278;50.826;9.030;2022-09-09T05:31:43;98081.72;;;20.65;55.46
47536;BME280;33278;50.826;9.030;2022-09-09T05:34:13;98075.97;;;20.67;55.48
47536;BME280;33278;50.826;9.030;2022-09-09T05:36:43;98075.53;;;20.65;55.34
47536;BME280;33278;50.826;9.030;2022-09-09T05:39:13;98071.22;;;20.64;55.34
47536;BME280;33278;50.826;9.030;2022-09-09T05:41:44;98066.59;;;20.64;55.29
47536;BME280;33278;50.826;9.030;2022-09-09T05:44:14;98071.22;;;20.64;55.41
47536;BME280;33278;50.826;9.030;2022-09-09T05:46:44;98068.19;;;20.65;55.28
47536;BME280;33278;50.826;9.030;2022-09-09T05:49:15;98077.06;;;20.66;55.73
47536;BME280;33278;50.826;9.030;2022-09-09T05:51:45;98080.59;;;20.66;55.37
47536;BME280;33278;50.826;9.030;2022-09-09T05:54:16;98077.88;;;20.66;55.39
47536;BME280;33278;50.826;9.030;2022-09-09T05:56:46;98085.19;;;20.66;55.52
47536;BME280;33278;50.826;9.030;2022-09-09T05:59:19;98094.91;;;20.67;55.56
47536;BME280;33278;50.826;9.030;2022-09-09T06:01:49;98097.63;;;20.67;55.60
47536;BME280;33278;50.826;9.030;2022-09-09T06:04:20;98092.19;;;20.67;55.38
47536;BME280;33278;50.826;9.030;2022-09-09T06:06:52;98084.41;;;20.65;55.39
47536;BME280;33278;50.826;9.030;2022-09-09T06:09:22;98086.00;;;20.66;55.24
47536;BME280;33278;50.826;9.030;2022-09-09T06:11:53;98082.50;;;20.66;55.56
47536;BME280;33278;50.826;9.030;2022-09-09T06:14:24;98092.19;;;20.67;55.35
47536;BME280;33278;50.826;9.030;2022-09-09T06:16:55;98096.84;;;20.66;55.16
47536;BME280;33278;50.826;9.030;2022-09-09T06:19:26;98100.31;;;20.67;55.33
47536;BME280;33278;50.826;9.030;2022-09-09T06:21:57;98097.63;;;20.67;55.34
47536;BME280;33278;50.826;9.030;2022-09-09T06:24:27;98093.78;;;20.68;55.60
47536;BME280;33278;50.826;9.030;2022-09-09T06:26:58;98099.19;;;20.68;55.30
47536;BME280;33278;50.826;9.030;2022-09-09T06:29:28;98111.97;;;20.67;55.38
47536;BME280;33278;50.826;9.030;2022-09-09T06:31:58;98104.63;;;20.68;55.17
47536;BME280;33278;50.826;9.030;2022-09-09T06:34:28;98103.03;;;20.67;55.39
47536;BME280;33278;50.826;9.030;2022-09-09T06:36:59;98109.25;;;20.67;55.34
47536;BME280;33278;50.826;9.030;2022-09-09T06:39:30;98110.84;;;20.68;55.13
47536;BME280;33278;50.826;9.030;2022-09-09T06:42:00;98104.63;;;20.68;55.11
47536;BME280;33278;50.826;9.030;2022-09-09T06:44:30;98117.03;;;20.69;55.32
47536;BME280;33278;50.826;9.030;2022-09-09T06:47:02;98116.25;;;20.68;55.30
47536;BME280;33278;50.826;9.030;2022-09-09T06:49:32;98110.84;;;20.68;55.52
47536;BME280;33278;50.826;9.030;2022-09-09T06:52:02;98112.72;;;20.68;55.41
47536;BME280;33278;50.826;9.030;2022-09-09T06:54:33;98111.63;;;20.69;55.33
47536;BME280;33278;50.826;9.030;2022-09-09T06:57:03;98119.41;;;20.70;55.48
47536;BME280;33278;50.826;9.030;2022-09-09T06:59:33;98115.09;;;20.69;55.50
47536;BME280;33278;50.826;9.030;2022-09-09T07:02:04;98107.78;;;20.70;55.24
47536;BME280;33278;50.826;9.030;2022-09-09T07:04:34;98115.91;;;20.70;55.58
47536;BME280;33278;50.826;9.030;2022-09-09T07:07:04;98108.56;;;20.70;55.30
47536;BME280;33278;50.826;9.030;2022-09-09T07:09:35;98103.97;;;20.71;55.71
47536;BME280;33278;50.826;9.030;2022-09-09T07:12:05;98117.50;;;20.71;55.39
47536;BME280;33278;50.826;9.030;2022-09-09T07:14:36;98117.19;;;20.73;55.21
47536;BME280;33278;50.826;9.030;2022-09-09T07:17:07;98112.88;;;20.71;55.34
47536;BME280;33278;50.826;9.030;2022-09-09T07:19:37;98119.91;;;20.73;55.33
47536;BME280;33278;50.826;9.030;2022-09-09T07:22:08;98116.84;;;20.74;55.29
47536;BME280;33278;50.826;9.030;2022-09-09T07:24:40;98120.69;;;20.73;55.35
47536;BME280;33278;50.826;9.030;2022-09-09T07:27:10;98123.97;;;20.79;55.04
47536;BME280;33278;50.826;9.030;2022-09-09T07:29:41;98118.91;;;20.77;55.22
47536;BME280;33278;50.826;9.030;2022-09-09T07:32:11;98126.22;;;20.77;55.25
47536;BME280;33278;50.826;9.030;2022-09-09T07:34:41;98119.25;;;20.76;55.49
47536;BME280;33278;50.826;9.030;2022-09-09T07:37:11;98130.84;;;20.76;55.41
47536;BME280;33278;50.826;9.030;2022-09-09T07:39:44;98128.94;;;20.77;55.47
47536;BME280;33278;50.826;9.030;2022-09-09T07:42:14;98127.03;;;20.77;55.38
47536;BME280;33278;50.826;9.030;2022-09-09T07:44:44;98131.31;;;20.78;55.53
47536;BME280;33278;50.826;9.030;2022-09-09T07:47:15;98128.63;;;20.78;55.23
47536;BME280;33278;50.826;9.030;2022-09-09T07:49:46;98133.22;;;20.78;55.07
47536;BME280;33278;50.826;9.030;2022-09-09T07:52:16;98131.31;;;20.78;55.32
47536;BME280;33278;50.826;9.030;2022-09-09T07:54:46;98125.91;;;20.78;55.20
47536;BME280;33278;50.826;9.030;2022-09-09T07:57:17;98140.22;;;20.79;54.96
47536;BME280;33278;50.826;9.030;2022-09-09T07:59:47;98137.50;;;20.79;55.03
47536;BME280;33278;50.826;9.030;2022-09-09T08:02:17;98147.22;;;20.80;54.97
47536;BME280;33278;50.826;9.030;2022-09-09T08:04:48;98141.81;;;20.80;55.10
47536;BME280;33278;50.826;9.030;2022-09-09T08:07:18;98140.22;;;20.79;55.02
47536;BME280;33278;50.826;9.030;2022-09-09T08:09:50;98142.94;;;20.79;54.97
47536;BME280;33278;50.826;9.030;2022-09-09T08:12:21;98140.22;;;20.79;55.34
47536;BME280;33278;50.826;9.030;2022-09-09T08:14:52;98138.31;;;20.79;55.08
47536;BME280;33278;50.826;9.030;2022-09-09T08:17:22;98141.03;;;20.79;54.99
47536;BME280;33278;50.826;9.030;2022-09-09T08:19:52;98127.50;;;20.79;55.36
47536;BME280;33278;50.826;9.030;2022-09-09T08:22:24;98135.63;;;20.79;55.16
47536;BME280;33278;50.826;9.030;2022-09-09T08:24:54;98138.31;;;20.79;54.96
47536;BME280;33278;50.826;9.030;2022-09-09T08:27:24;98145.31;;;20.80;54.99
47536;BME280;33278;50.826;9.030;2022-09-09T08:29:55;98148.03;;;20.80;55.14
47536;BME280;33278;50.826;9.030;2022-09-09T08:32:26;98150.75;;;20.80;54.82
47536;BME280;33278;50.826;9.030;2022-09-09T08:34:56;98150.75;;;20.80;55.10
47536;BME280;33278;50.826;9.030;2022-09-09T08:37:27;98158.06;;;20.80;54.74
47536;BME280;33278;50.826;9.030;2022-09-09T08:39:57;98162.69;;;20.79;54.86
47536;BME280;33278;50.826;9.030;2022-09-09T08:42:30;98166.97;;;20.80;54.96
47536;BME280;33278;50.826;9.030;2022-09-09T08:45:23;98159.66;;;20.81;54.86
47536;BME280;33278;50.826;9.030;2022-09-09T08:50:44;98156.59;;;20.82;54.77
47536;BME280;33278;50.826;9.030;2022-09-09T08:53:28;98155.81;;;20.82;54.60
47536;BME280;33278;50.826;9.030;2022-09-09T08:56:09;98151.19;;;20.82;54.94
47536;BME280;33278;50.826;9.030;2022-09-09T08:58:48;98164.72;;;20.82;54.88
47536;BME280;33278;50.826;9.030;2022-09-09T09:04:29;98150.41;;;20.82;54.52
47536;BME280;33278;50.826;9.030;2022-09-09T09:12:41;98151.66;;;20.84;54.67
47536;BME280;33278;50.826;9.030;2022-09-09T09:15:22;98141.94;;;20.83;54.55
47536;BME280;33278;50.826;9.030;2022-09-09T09:17:53;98148.16;;;20.84;54.54
47536;BME280;33278;50.826;9.030;2022-09-09T09:20:42;98138.13;;;20.84;54.49
47536;BME280;33278;50.826;9.030;2022-09-09T09:23:22;98143.19;;;20.86;54.55
47536;BME280;33278;50.826;9.030;2022-09-09T09:25:58;98142.41;;;20.85;54.42
47536;BME280;33278;50.826;9.030;2022-09-09T09:28:32;98153.25;;;20.85;54.51
47536;BME280;33278;50.826;9.030;2022-09-09T09:31:09;98153.25;;;20.85;54.41
47536;BME280;33278;50.826;9.030;2022-09-09T09:36:10;98152.13;;;20.86;54.57
47536;BME280;33278;50.826;9.030;2022-09-09T09:38:57;98140.47;;;20.86;54.51
47536;BME280;33278;50.826;9.030;2022-09-09T09:41:38;98130.47;;;20.86;54.25
47536;BME280;33278;50.826;9.030;2022-09-09T09:44:30;98144.78;;;20.87;54.57
47536;BME280;33278;50.826;9.030;2022-09-09T09:47:07;98144.78;;;20.87;54.44
47536;BME280;33278;50.826;9.030;2022-09-09T09:49:38;98144.78;;;20.87;54.31
47536;BME280;33278;50.826;9.030;2022-09-09T09:52:17;98136.66;;;20.87;54.13
47536;BME280;33278;50.826;9.030;2022-09-09T09:54:52;98132.06;;;20.87;54.30
47536;BME280;33278;50.826;9.030;2022-09-09T09:57:31;98132.06;;;20.87;54.22
47536;BME280;33278;50.826;9.030;2022-09-09T10:00:16;98127.41;;;20.88;54.53
47536;BME280;33278;50.826;9.030;2022-09-09T10:02:51;98126.63;;;20.87;54.31
47536;BME280;33278;50.826;9.030;2022-09-09T10:05:24;98130.13;;;20.88;54.11
47536;BME280;33278;50.826;9.030;2022-09-09T10:14:04;98121.66;;;20.90;54.31
47536;BME280;33278;50.826;9.030;2022-09-09T10:19:33;98122.47;;;20.90;54.45
47536;BME280;33278;50.826;9.030;2022-09-09T10:22:23;98110.84;;;20.90;54.06
47536;BME280;33278;50.826;9.030;2022-09-09T10:30:42;98118.94;;;20.90;54.13
47536;BME280;33278;50.826;9.030;2022-09-09T10:33:13;98131.38;;;20.91;54.13
47536;BME280;33278;50.826;9.030;2022-09-09T10:36:13;98123.25;;;20.91;54.18
47536;BME280;33278;50.826;9.030;2022-09-09T10:39:06;98121.66;;;20.90;54.33
47536;BME280;33278;50.826;9.030;2022-09-09T10:44:41;98126.28;;;20.89;54.13
47536;BME280;33278;50.826;9.030;2022-09-09T10:50:25;98146.84;;;20.90;54.04
47536;BME280;33278;50.826;9.030;2022-09-09T10:53:08;98133.28;;;20.90;54.09
47536;BME280;33278;50.826;9.030;2022-09-09T10:55:50;98133.28;;;20.90;54.12
47536;BME280;33278;50.826;9.030;2022-09-09T10:58:30;98127.06;;;20.90;54.15
47536;BME280;33278;50.826;9.030;2022-09-09T11:01:17;98124.38;;;20.90;54.05
47536;BME280;33278;50.826;9.030;2022-09-09T11:04:40;98115.94;;;20.91;54.09
47536;BME280;33278;50.826;9.030;2022-09-09T11:06:48;98110.84;;;20.90;54.07
47536;BME280;33278;50.826;9.030;2022-09-09T11:09:24;98118.66;;;20.91;54.28
47536;BME280;33278;50.826;9.030;2022-09-09T11:11:58;98115.94;;;20.91;54.14
47536;BME280;33278;50.826;9.030;2022-09-09T11:14:43;98112.06;;;20.92;53.89
47536;BME280;33278;50.826;9.030;2022-09-09T11:17:19;98109.38;;;20.92;54.21
47536;BME280;33278;50.826;9.030;2022-09-09T11:19:50;98112.88;;;20.93;54.22
47536;BME280;33278;50.826;9.030;2022-09-09T11:22:32;98110.19;;;20.93;54.29
47536;BME280;33278;50.826;9.030;2022-09-09T11:25:14;98112.88;;;20.93;54.12
47536;BME280;33278;50.826;9.030;2022-09-09T11:39:06;98107.13;;;20.94;54.04
47536;BME280;33278;50.826;9.030;2022-09-09T11:41:43;98107.94;;;20.95;53.83
47536;BME280;33278;50.826;9.030;2022-09-09T11:44:19;98111.41;;;20.95;53.84
47536;BME280;33278;50.826;9.030;2022-09-09T11:46:53;98123.38;;;20.94;53.88
47536;BME280;33278;50.826;9.030;2022-09-09T11:52:25;98136.13;;;20.94;53.99
47536;BME280;33278;50.826;9.030;2022-09-09T11:55:30;98140.44;;;20.95;53.96
47536;BME280;33278;50.826;9.030;2022-09-09T11:58:04;98139.28;;;20.96;53.63
47536;BME280;33278;50.826;9.030;2022-09-09T12:00:36;98151.69;;;20.97;53.57
47536;BME280;33278;50.826;9.030;2022-09-09T12:06:19;98148.22;;;20.96;53.71
47536;BME280;33278;50.826;9.030;2022-09-09T12:08:58;98142.81;;;20.96;53.83
47536;BME280;33278;50.826;9.030;2022-09-09T12:11:35;98136.56;;;20.96;53.75
47536;BME280;33278;50.826;9.030;2022-09-09T12:19:43;98130.84;;;20.97;53.65
47536;BME280;33278;50.826;9.030;2022-09-09T12:22:35;98126.22;;;20.98;53.92
47536;BME280;33278;50.826;9.030;2022-09-09T12:28:52;98124.31;;;20.98;53.63
47536;BME280;33278;50.826;9.030;2022-09-09T12:31:39;98122.38;;;20.99;53.55
47536;BME280;33278;50.826;9.030;2022-09-09T12:34:14;98132.09;;;21.00;53.82
47536;BME280;33278;50.826;9.030;2022-09-09T12:36:51;98126.22;;;20.98;53.47
47536;BME280;33278;50.826;9.030;2022-09-09T12:39:35;98127.34;;;20.97;53.50
47536;BME280;33278;50.826;9.030;2022-09-09T12:42:16;98119.69;;;20.99;53.63
47536;BME280;33278;50.826;9.030;2022-09-09T12:44:53;98116.19;;;20.98;53.60
47536;BME280;33278;50.826;9.030;2022-09-09T12:50:28;98109.66;;;20.99;53.44
47536;BME280;33278;50.826;9.030;2022-09-09T12:53:02;98105.34;;;20.98;53.82
47536;BME280;33278;50.826;9.030;2022-09-09T12:55:36;98115.06;;;20.99;53.64
47536;BME280;33278;50.826;9.030;2022-09-09T12:58:13;98114.25;;;20.99;53.45
47536;BME280;33278;50.826;9.030;2022-09-09T13:00:52;98120.78;;;20.98;53.51
47536;BME280;33278;50.826;9.030;2022-09-09T13:03:23;98105.00;;;21.00;53.57
47536;BME280;33278;50.826;9.030;2022-09-09T13:05:58;98111.22;;;21.00;53.66
47536;BME280;33278;50.826;9.030;2022-09-09T13:08:31;98100.38;;;21.00;53.54
47536;BME280;33278;50.826;9.030;2022-09-09T13:11:06;98101.97;;;21.01;53.38
47536;BME280;33278;50.826;9.030;2022-09-09T13:13:40;98101.19;;;21.01;53.59
47536;BME280;33278;50.826;9.030;2022-09-09T13:16:26;98097.66;;;21.00;53.49
47536;BME280;33278;50.826;9.030;2022-09-09T13:19:07;98108.50;;;21.00;53.74
47536;BME280;33278;50.826;9.030;2022-09-09T13:21:39;98094.19;;;21.00;53.39
47536;BME280;33278;50.826;9.030;2022-09-09T13:24:28;98092.25;;;21.00;53.33
47536;BME280;33278;50.826;9.030;2022-09-09T13:27:18;98097.66;;;21.00;53.48
47536;BME280;33278;50.826;9.030;2022-09-09T13:29:53;98095.78;;;21.01;53.39
47536;BME280;33278;50.826;9.030;2022-09-09T13:32:26;98094.19;;;21.00;53.66
47536;BME280;33278;50.826;9.030;2022-09-09T13:34:59;98104.22;;;20.99;53.43
47536;BME280;33278;50.826;9.030;2022-09-09T13:37:36;98092.59;;;20.99;53.61
47536;BME280;33278;50.826;9.030;2022-09-09T13:40:18;98100.72;;;20.99;53.33
47536;BME280;33278;50.826;9.030;2022-09-09T13:42:55;98097.22;;;20.98;53.61
47536;BME280;33278;50.826;9.030;2022-09-09T13:45:26;98089.88;;;20.99;53.57
47536;BME280;33278;50.826;9.030;2022-09-09T13:47:56;98077.16;;;20.99;53.43
47536;BME280;33278;50.826;9.030;2022-09-09T13:50:28;98077.16;;;20.99;53.29
47536;BME280;33278;50.826;9.030;2022-09-09T13:52:59;98079.06;;;20.99;53.42
47536;BME280;33278;50.826;9.030;2022-09-09T13:55:29;98078.28;;;20.98;53.36
47536;BME280;33278;50.826;9.030;2022-09-09T13:58:02;98080.19;;;20.98;53.36
47536;BME280;33278;50.826;9.030;2022-09-09T14:00:34;98072.88;;;20.98;53.47
47536;BME280;33278;50.826;9.030;2022-09-09T14:03:04;98070.16;;;20.98;53.29
47536;BME280;33278;50.826;9.030;2022-09-09T14:05:35;98069.34;;;20.98;53.61
47536;BME280;33278;50.826;9.030;2022-09-09T14:08:06;98074.75;;;20.98;53.24
47536;BME280;33278;50.826;9.030;2022-09-09T14:10:37;98078.28;;;20.98;53.37
47536;BME280;33278;50.826;9.030;2022-09-09T14:13:07;98067.75;;;20.97;53.52
47536;BME280;33278;50.826;9.030;2022-09-09T14:15:38;98070.47;;;20.97;53.63
47536;BME280;33278;50.826;9.030;2022-09-09T14:18:11;98068.88;;;20.96;53.62
47536;BME280;33278;50.826;9.030;2022-09-09T14:20:42;98072.75;;;20.95;53.46
47536;BME280;33278;50.826;9.030;2022-09-09T14:23:12;98070.03;;;20.95;53.40
47536;BME280;33278;50.826;9.030;2022-09-09T14:25:43;98068.44;;;20.94;53.56
47536;BME280;33278;50.826;9.030;2022-09-09T14:28:13;98072.75;;;20.95;53.28
47536;BME280;33278;50.826;9.030;2022-09-09T14:30:44;98077.34;;;20.94;53.51
47536;BME280;33278;50.826;9.030;2022-09-09T14:33:15;98071.94;;;20.94;53.34
47536;BME280;33278;50.826;9.030;2022-09-09T14:35:46;98070.03;;;20.95;53.52
47536;BME280;33278;50.826;9.030;2022-09-09T14:38:16;98067.31;;;20.95;53.47
47536;BME280;33278;50.826;9.030;2022-09-09T14:40:46;98066.16;;;20.96;53.48
47536;BME280;33278;50.826;9.030;2022-09-09T14:43:17;98066.97;;;20.96;53.45
47536;BME280;33278;50.826;9.030;2022-09-09T14:45:47;98064.63;;;20.95;53.50
47536;BME280;33278;50.826;9.030;2022-09-09T14:48:23;98062.69;;;20.95;53.51
47536;BME280;33278;50.826;9.030;2022-09-09T14:50:54;98056.16;;;20.96;53.47
47536;BME280;33278;50.826;9.030;2022-09-09T14:53:25;98049.16;;;20.95;53.27
47536;BME280;33278;50.826;9.030;2022-09-09T14:56:03;98049.16;;;20.95;53.27
47536;BME280;33278;50.826;9.030;2022-09-09T14:58:34;98040.25;;;20.95;53.42
47536;BME280;33278;50.826;9.030;2022-09-09T15:01:06;98029.06;;;20.96;53.33
47536;BME280;33278;50.826;9.030;2022-09-09T15:03:41;98039.09;;;20.96;53.64
47536;BME280;33278;50.826;9.030;2022-09-09T15:06:13;98036.38;;;20.96;53.41
47536;BME280;33278;50.826;9.030;2022-09-09T15:08:44;98032.91;;;20.95;53.42
47536;BME280;33278;50.826;9.030;2022-09-09T15:11:15;98029.41;;;20.95;53.29
47536;BME280;33278;50.826;9.030;2022-09-09T15:13:46;98042.16;;;20.94;53.54